TimeEET,TemperatureF,Dew PointF,Humidity,Sea Level PressureIn,VisibilityMPH,Wind Direction,Wind SpeedMPH,Gust SpeedMPH,PrecipitationIn,Events,Conditions,WindDirDegrees,DateUTC
12:00 AM,68.0,66.2,94,29.86,-9999.0,WNW,9.2,-,N/A,,Clear,300,2013-03-03 22:00:00
1:00 AM,68.0,66.2,94,29.86,-9999.0,WNW,9.2,-,N/A,,Clear,290,2013-03-03 23:00:00
2:00 AM,66,66,100,29.86,6,WNW,11.5,,,,,300,2013-03-04 00:00:00
2:00 AM,66.2,66.2,100,29.86,-9999.0,WNW,11.5,-,N/A,,Clear,300,2013-03-04 00:00:00
3:00 AM,66.2,66.2,100,29.86,-9999.0,WNW,11.5,-,N/A,,Clear,290,2013-03-04 01:00:00
4:00 AM,66.2,66.2,100,29.86,-9999.0,WNW,11.5,-,N/A,,Clear,290,2013-03-04 02:00:00
5:00 AM,66.2,64.4,94,29.86,-9999.0,NW,11.5,-,N/A,,Clear,320,2013-03-04 03:00:00
6:00 AM,64.4,62.6,94,29.89,-9999.0,North,13.8,-,N/A,,Clear,350,2013-03-04 04:00:00
7:00 AM,62.6,55.4,77,29.92,-9999.0,NNW,9.2,-,N/A,,Clear,330,2013-03-04 05:00:00
8:00 AM,69,52,45,29.94,6,NW,13.8,,,,,320,2013-03-04 06:00:00
8:00 AM,68.0,51.8,56,29.92,-9999.0,NW,13.8,-,N/A,,Clear,320,2013-03-04 06:00:00
9:00 AM,71.6,53.6,53,29.95,-9999.0,NNW,13.8,-,N/A,,Clear,330,2013-03-04 07:00:00
10:00 AM,77.0,53.6,44,29.95,-9999.0,NW,17.3,-,N/A,,Clear,310,2013-03-04 08:00:00
11:00 AM,78.8,51.8,39,29.95,5.0,North,26.5,-,N/A,,Unknown,350,2013-03-04 09:00:00
12:00 PM,80.6,50.0,34,29.92,5.0,North,25.3,-,N/A,,Unknown,360,2013-03-04 10:00:00
1:00 PM,86.0,44.6,23,29.89,5.0,North,19.6,-,N/A,,Unknown,350,2013-03-04 11:00:00
2:00 PM,82.4,46.4,28,29.86,5.0,North,26.5,-,N/A,,Unknown,350,2013-03-04 12:00:00
3:00 PM,82.4,48.2,30,29.86,5.0,North,23.0,-,N/A,,Unknown,360,2013-03-04 13:00:00
4:00 PM,82.4,42.8,25,29.86,5.0,North,20.7,-,N/A,,Unknown,350,2013-03-04 14:00:00
5:00 PM,80.6,44.6,28,29.86,-9999.0,NNW,20.7,-,N/A,,Unknown,340,2013-03-04 15:00:00
6:00 PM,77.0,42.8,29,29.89,-9999.0,NNW,12.7,-,N/A,,Unknown,330,2013-03-04 16:00:00
7:00 PM,73.4,41.0,31,29.92,-9999.0,NNW,20.7,-,N/A,,Clear,340,2013-03-04 17:00:00
8:00 PM,73.4,39.2,29,29.95,-9999.0,NNW,23.0,-,N/A,,Clear,330,2013-03-04 18:00:00
9:00 PM,71.6,41.0,33,29.95,-9999.0,NW,20.7,-,N/A,,Clear,320,2013-03-04 19:00:00
10:00 PM,68.0,39.2,35,29.95,-9999.0,NNW,16.1,-,N/A,,Clear,330,2013-03-04 20:00:00
11:00 PM,66.2,39.2,37,29.95,-9999.0,NW,13.8,-,N/A,,Clear,320,2013-03-04 21:00:00